Terminal Aerodrome Forecast
Issued by NWS Charleston, WV

Current Version | Previous Version | Graphics & Text | Print | Product List | Glossary On
Versions: 1 2 3 4 5 6 7 8 9 10 11 12 13 14 15 16 17 18 19 20 21 22 23 24 25 26 27 28 29 30 31 32 33 34 35 36
000
FTUS41 KRLX 221300 AAA
TAFEKN
TAF AMD
KEKN 221357Z 2214/2312 32009KT P6SM OVC006
     FM221500 32007KT P6SM OVC010
     FM221700 31007KT P6SM OVC015
     FM230200 31007KT 6SM BR BKN015
     FM230300 32008KT 5SM BR BKN010
     FM230600 31006KT 1/2SM FG VV001=

USA.gov is the U.S. government's official web portal to all federal, state and local government web resources and services.